Froid, Montana
Current Conditions -  °F | °C
As of 4:52 AM on Sunday 21 Dec 2014 (Local Time) from KISN Reporting Station
Clear Clear  
Wind Chill: -8°   Ceiling: Unl
Heat Index: -8°   Visibility: 10mi
Dew Point: -10°   Wind: 0mph
Humidity: 88%   Direction: NA
Pressure: 29.54"   Gusts: NA
Location:  48.33°N, 104.5°W
Report Text: KISN 211152Z AUTO 00000KT 10SM CLR M08/M10 A2954 RMK AO2 SLP030 I1000 I6000 T10831100 11056 21100 56029 $
Loading
Personal Weather Stations






























Interactive Weather Map New forecast layout! Learn more

10-Day Weather Forecast

Advertisements
Track Severe Weather on mobile